createdAt,value
2018-12-15T00:02:06.538Z,4.21
2018-12-15T00:04:33.019Z,4.29
2018-12-15T00:07:00.176Z,4.38
2018-12-15T00:09:26.661Z,4.45
2018-12-15T00:11:53.738Z,4.48
2018-12-15T00:14:20.794Z,4.51
2018-12-15T00:16:48.151Z,4.40
2018-12-15T00:19:15.287Z,4.41
2018-12-15T00:21:42.563Z,4.25
2018-12-15T00:24:10.076Z,4.28
2018-12-15T00:26:40.612Z,4.37
2018-12-15T00:29:07.372Z,4.38
2018-12-15T00:31:34.337Z,4.68
2018-12-15T00:34:01.770Z,4.58
2018-12-15T00:36:29.540Z,4.53
2018-12-15T00:38:56.557Z,4.48
2018-12-15T00:41:23.152Z,4.46
2018-12-15T00:43:49.791Z,4.42
2018-12-15T00:46:16.315Z,4.42
2018-12-15T00:48:43.023Z,4.34
2018-12-15T00:51:09.807Z,4.25
2018-12-15T00:53:37.222Z,4.24
2018-12-15T00:56:03.779Z,4.18
2018-12-15T00:58:30.457Z,4.14
2018-12-15T01:00:57.033Z,4.15
2018-12-15T01:03:24.118Z,4.31
2018-12-15T01:05:50.837Z,4.39
2018-12-15T01:08:19.025Z,4.40
2018-12-15T01:10:46.082Z,4.40
2018-12-15T01:13:13.904Z,4.44
2018-12-15T01:15:40.631Z,4.37
2018-12-15T01:18:07.163Z,4.26
2018-12-15T01:20:33.631Z,4.13
2018-12-15T01:23:01.124Z,4.12
2018-12-15T01:25:28.339Z,4.15
2018-12-15T01:27:56.233Z,4.10
2018-12-15T01:30:23.719Z,4.00
2018-12-15T01:32:53.609Z,3.93
2018-12-15T01:35:22.554Z,3.74
2018-12-15T01:37:49.603Z,3.78
2018-12-15T01:40:16.983Z,3.76
2018-12-15T01:42:44.482Z,3.92
2018-12-15T01:45:12.808Z,4.02
2018-12-15T01:47:42.429Z,4.09
2018-12-15T01:50:09.989Z,4.17
2018-12-15T01:52:38.253Z,4.22
2018-12-15T01:55:05.856Z,4.23
2018-12-15T02:00:06.313Z,4.25
2018-12-15T02:02:33.860Z,4.27
2018-12-15T02:05:02.109Z,4.27
2018-12-15T02:07:30.761Z,4.24
2018-12-15T02:10:00.179Z,4.16
2018-12-15T02:12:28.631Z,4.12
2018-12-15T02:14:57.530Z,4.12
2018-12-15T02:17:26.118Z,4.10
2018-12-15T02:19:54.587Z,4.02
2018-12-15T02:22:22.707Z,4.05
2018-12-15T02:24:52.562Z,4.11
2018-12-15T02:27:20.816Z,4.14
2018-12-15T02:29:49.823Z,4.16
2018-12-15T02:32:17.078Z,4.28
2018-12-15T02:34:45.658Z,4.39
2018-12-15T02:39:46.275Z,4.26
2018-12-15T02:42:14.252Z,4.19
2018-12-15T02:44:42.942Z,4.24
2018-12-15T02:47:10.868Z,4.19
2018-12-15T02:49:37.783Z,4.14
2018-12-15T02:52:08.915Z,4.07
2018-12-15T02:54:36.969Z,3.93
2018-12-15T02:57:05.311Z,3.96
2018-12-15T02:59:33.311Z,4.02
2018-12-15T03:02:00.154Z,4.21
2018-12-15T03:04:27.507Z,4.25
2018-12-15T03:09:26.219Z,4.22
2018-12-15T03:11:53.481Z,4.30
2018-12-15T03:14:20.836Z,4.29
2018-12-15T03:16:49.214Z,4.25
2018-12-15T03:19:16.762Z,4.12
2018-12-15T03:21:44.026Z,4.00
2018-12-15T03:24:11.449Z,4.12
2018-12-15T03:26:38.917Z,4.11
2018-12-15T03:29:06.497Z,4.03
2018-12-15T03:31:34.981Z,4.13
2018-12-15T03:34:03.267Z,4.15
2018-12-15T03:36:31.938Z,4.13
2018-12-15T03:38:59.087Z,3.92
2018-12-15T03:41:25.950Z,3.71
2018-12-15T03:43:53.070Z,3.75
2018-12-15T03:46:20.180Z,3.85
2018-12-15T03:48:47.397Z,3.90
2018-12-15T03:51:15.498Z,3.97
2018-12-15T03:53:42.548Z,3.96
2018-12-15T03:56:13.588Z,3.99
2018-12-15T03:58:41.551Z,4.04
2018-12-15T04:01:09.647Z,4.03
2018-12-15T04:03:40.751Z,3.98
2018-12-15T04:06:08.302Z,3.84
2018-12-15T04:08:37.062Z,3.92
2018-12-15T04:11:06.130Z,3.98
2018-12-15T04:13:33.622Z,3.79
2018-12-15T04:16:00.709Z,3.80
2018-12-15T04:18:29.141Z,3.79
2018-12-15T04:20:56.610Z,3.61
2018-12-15T04:23:25.519Z,3.74
2018-12-15T04:25:53.235Z,3.84
2018-12-15T04:28:20.916Z,3.79
2018-12-15T04:30:49.243Z,3.70
2018-12-15T04:33:16.726Z,3.71
2018-12-15T04:35:44.777Z,3.77
2018-12-15T04:38:12.814Z,3.76
2018-12-15T04:40:40.082Z,3.85
2018-12-15T04:43:08.811Z,4.04
2018-12-15T04:45:35.753Z,3.89
2018-12-15T04:48:10.836Z,3.74
2018-12-15T04:50:35.995Z,3.79
2018-12-15T04:53:02.608Z,3.85
2018-12-15T04:55:31.659Z,3.84
2018-12-15T04:57:58.515Z,3.93
2018-12-15T05:00:27.816Z,3.70
2018-12-15T05:02:55.272Z,3.64
2018-12-15T05:05:23.856Z,3.74
2018-12-15T05:07:51.810Z,3.85
2018-12-15T05:10:19.555Z,3.83
2018-12-15T05:15:17.544Z,3.86
2018-12-15T05:17:45.854Z,3.72
2018-12-15T05:22:45.177Z,3.80
2018-12-15T05:25:12.803Z,3.65
2018-12-15T05:27:39.683Z,3.75
2018-12-15T05:30:06.895Z,3.75
2018-12-15T05:32:34.161Z,3.90
2018-12-15T05:35:01.718Z,3.81
2018-12-15T05:37:29.707Z,3.96
2018-12-15T05:39:56.819Z,3.84
2018-12-15T05:42:25.710Z,3.84
2018-12-15T05:44:54.792Z,3.64
2018-12-15T05:47:23.271Z,3.38
2018-12-15T05:49:51.530Z,3.60
2018-12-15T05:52:19.391Z,3.61
2018-12-15T05:54:46.379Z,3.63
2018-12-15T05:57:13.832Z,3.68
2018-12-15T05:59:41.077Z,3.82
2018-12-15T06:02:08.090Z,3.66
2018-12-15T06:04:35.566Z,3.68
2018-12-15T06:07:03.429Z,3.68
2018-12-15T06:09:31.148Z,3.55
2018-12-15T06:11:58.795Z,3.63
2018-12-15T06:14:26.769Z,3.66
2018-12-15T06:16:58.572Z,3.59
2018-12-15T06:19:25.903Z,3.63
2018-12-15T06:21:55.328Z,3.91
2018-12-15T06:24:22.608Z,3.78
2018-12-15T06:26:50.871Z,3.47
2018-12-15T06:29:18.106Z,3.62
2018-12-15T06:31:46.053Z,3.63
2018-12-15T06:34:14.436Z,3.61
2018-12-15T06:36:41.143Z,3.54
2018-12-15T06:39:08.524Z,3.48
2018-12-15T06:41:39.997Z,3.68
2018-12-15T06:44:07.645Z,3.58
2018-12-15T06:46:37.295Z,3.42
2018-12-15T06:49:03.745Z,3.66
2018-12-15T06:51:30.992Z,3.90
2018-12-15T06:53:58.706Z,3.79
2018-12-15T06:56:26.090Z,3.63
2018-12-15T06:58:53.713Z,3.83
2018-12-15T07:01:21.697Z,3.95
2018-12-15T07:03:49.882Z,3.98
2018-12-15T07:06:17.583Z,3.88
2018-12-15T07:08:44.887Z,3.92
2018-12-15T07:11:12.442Z,3.93
2018-12-15T07:13:40.251Z,4.03
2018-12-15T07:16:08.184Z,3.95
2018-12-15T07:18:35.582Z,4.23
2018-12-15T07:21:02.494Z,4.44
2018-12-15T07:23:31.780Z,4.44
2018-12-15T07:25:59.629Z,4.41
2018-12-15T07:28:27.716Z,4.18
2018-12-15T07:30:54.263Z,3.88
2018-12-15T07:33:23.277Z,3.98
2018-12-15T07:35:50.333Z,4.40
2018-12-15T07:38:18.105Z,4.48
2018-12-15T07:40:45.154Z,4.34
2018-12-15T07:45:43.899Z,4.26
2018-12-15T07:48:11.906Z,4.42
2018-12-15T07:50:40.702Z,4.63
2018-12-15T07:53:08.037Z,4.29
2018-12-15T07:55:35.565Z,4.02
2018-12-15T07:58:04.024Z,4.45
2018-12-15T08:00:31.396Z,4.63
2018-12-15T08:02:58.998Z,4.62
2018-12-15T08:05:26.462Z,4.65
2018-12-15T08:07:55.453Z,4.48
2018-12-15T08:10:22.920Z,4.68
2018-12-15T08:12:51.084Z,4.55
2018-12-15T08:15:19.784Z,4.49
2018-12-15T08:17:47.666Z,4.64
2018-12-15T08:20:16.496Z,4.56
2018-12-15T08:22:45.733Z,4.63
2018-12-15T08:25:12.947Z,4.89
2018-12-15T08:27:39.940Z,5.10
2018-12-15T08:30:08.032Z,5.18
2018-12-15T08:32:35.358Z,5.28
2018-12-15T08:35:03.399Z,5.61
2018-12-15T08:37:32.170Z,5.95
2018-12-15T08:40:00.079Z,5.85
2018-12-15T08:42:29.270Z,6.13
2018-12-15T08:44:57.302Z,5.85
2018-12-15T08:47:24.719Z,5.73
2018-12-15T08:49:57.805Z,5.70
2018-12-15T08:52:27.496Z,5.70
2018-12-15T08:54:54.795Z,5.37
2018-12-15T08:57:22.866Z,5.13
2018-12-15T08:59:50.597Z,5.85
2018-12-15T09:02:18.899Z,6.15
2018-12-15T09:04:46.184Z,6.16
2018-12-15T09:07:16.526Z,6.41
2018-12-15T09:09:45.511Z,6.37
2018-12-15T09:12:12.512Z,6.67
2018-12-15T09:14:40.061Z,6.53
2018-12-15T09:17:07.521Z,6.78
2018-12-15T09:19:36.265Z,6.95
2018-12-15T09:22:11.324Z,6.89
2018-12-15T09:24:35.073Z,6.88
2018-12-15T09:27:03.511Z,6.74
2018-12-15T09:29:31.490Z,6.81
2018-12-15T09:31:58.000Z,6.87
2018-12-15T09:34:25.911Z,6.93
2018-12-15T09:36:54.141Z,7.25
2018-12-15T09:39:22.653Z,7.31
2018-12-15T09:41:51.317Z,7.42
2018-12-15T09:44:19.063Z,7.27
2018-12-15T09:46:47.628Z,7.19
2018-12-15T09:49:17.942Z,7.47
2018-12-15T09:51:47.425Z,7.17
2018-12-15T09:54:16.097Z,7.40
2018-12-15T09:56:43.236Z,7.22
2018-12-15T09:59:16.632Z,7.16
2018-12-15T10:01:44.414Z,7.45
2018-12-15T10:04:12.171Z,7.54
2018-12-15T10:06:40.413Z,7.55
2018-12-15T10:09:07.293Z,7.79
2018-12-15T10:11:35.214Z,7.48
2018-12-15T10:14:03.493Z,7.24
2018-12-15T10:16:31.487Z,7.64
2018-12-15T10:18:59.070Z,7.26
2018-12-15T10:21:26.747Z,7.65
2018-12-15T10:23:54.040Z,7.61
2018-12-15T10:26:22.279Z,7.02
2018-12-15T10:28:49.106Z,7.54
2018-12-15T10:31:18.498Z,7.52
2018-12-15T10:33:46.920Z,7.64
2018-12-15T10:36:15.516Z,7.69
2018-12-15T10:38:43.947Z,7.10
2018-12-15T10:41:12.422Z,6.93
2018-12-15T10:43:40.207Z,6.88
2018-12-15T10:46:08.719Z,7.32
2018-12-15T10:48:37.236Z,7.09
2018-12-15T10:51:05.432Z,7.09
2018-12-15T10:53:33.425Z,7.13
2018-12-15T10:58:34.600Z,7.81
2018-12-15T11:01:04.239Z,6.92
2018-12-15T11:03:32.095Z,6.92
2018-12-15T11:05:59.914Z,7.63
2018-12-15T11:08:27.692Z,7.69
2018-12-15T11:10:54.311Z,7.43
2018-12-15T11:13:22.563Z,7.46
2018-12-15T11:18:21.833Z,7.47
2018-12-15T11:20:49.081Z,7.86
2018-12-15T11:23:16.950Z,7.33
2018-12-15T11:25:45.217Z,7.53
2018-12-15T11:28:13.295Z,7.62
2018-12-15T11:30:41.866Z,7.70
2018-12-15T11:33:09.449Z,7.68
2018-12-15T11:35:38.048Z,7.64
2018-12-15T11:38:05.995Z,7.54
2018-12-15T11:40:33.198Z,7.92
2018-12-15T11:43:00.694Z,7.73
2018-12-15T11:45:27.331Z,8.34
2018-12-15T11:47:55.561Z,8.68
2018-12-15T11:50:24.362Z,9.09
2018-12-15T11:52:52.431Z,8.74
2018-12-15T11:55:19.590Z,8.74
2018-12-15T11:57:47.953Z,8.46
2018-12-15T12:00:14.461Z,8.82
2018-12-15T12:02:41.561Z,8.64
2018-12-15T12:05:08.289Z,8.93
2018-12-15T12:07:36.409Z,8.68
2018-12-15T12:10:04.060Z,8.28
2018-12-15T12:12:33.291Z,8.09
2018-12-15T12:15:02.464Z,8.67
2018-12-15T12:17:31.061Z,8.31
2018-12-15T12:19:59.438Z,8.43
2018-12-15T12:22:27.908Z,8.22
2018-12-15T12:24:55.725Z,7.83
2018-12-15T12:27:23.080Z,7.98
2018-12-15T12:29:50.496Z,8.07
2018-12-15T12:32:17.858Z,7.46
2018-12-15T12:34:46.580Z,7.63
2018-12-15T12:37:14.324Z,7.76
2018-12-15T12:39:41.789Z,7.37
2018-12-15T12:42:09.326Z,7.35
2018-12-15T12:44:36.067Z,7.59
2018-12-15T12:47:03.627Z,8.30
2018-12-15T12:49:32.435Z,8.15
2018-12-15T12:52:00.520Z,8.11
2018-12-15T12:54:28.660Z,7.85
2018-12-15T12:56:56.208Z,7.48
2018-12-15T12:59:24.361Z,7.66
2018-12-15T13:01:52.068Z,7.82
2018-12-15T13:04:20.676Z,7.83
2018-12-15T13:06:48.857Z,7.59
2018-12-15T13:09:17.168Z,7.93
2018-12-15T13:11:44.401Z,8.40
2018-12-15T13:14:12.633Z,8.65
2018-12-15T13:16:40.075Z,8.66
2018-12-15T13:19:08.062Z,8.88
2018-12-15T13:21:36.029Z,8.79
2018-12-15T13:24:03.260Z,8.71
2018-12-15T13:26:30.705Z,7.94
2018-12-15T13:28:58.899Z,8.20
2018-12-15T13:31:25.988Z,8.25
2018-12-15T13:33:54.310Z,7.74
2018-12-15T13:36:21.829Z,7.79
2018-12-15T13:38:48.340Z,8.20
2018-12-15T13:41:16.395Z,8.13
2018-12-15T13:43:43.235Z,7.91
2018-12-15T13:46:10.815Z,7.84
2018-12-15T13:48:39.087Z,7.55
2018-12-15T13:51:07.885Z,7.89
2018-12-15T13:53:34.968Z,7.57
2018-12-15T13:56:01.858Z,6.85
2018-12-15T13:58:30.141Z,6.74
2018-12-15T14:00:57.675Z,6.79
2018-12-15T14:03:25.988Z,6.95
2018-12-15T14:05:54.107Z,6.74
2018-12-15T14:08:21.869Z,6.69
2018-12-15T14:10:50.133Z,6.76
2018-12-15T14:13:17.855Z,6.48
2018-12-15T14:15:45.531Z,6.12
2018-12-15T14:18:12.982Z,5.94
2018-12-15T14:20:41.061Z,6.10
2018-12-15T14:23:09.340Z,5.92
2018-12-15T14:25:37.208Z,5.92
2018-12-15T14:28:04.209Z,5.70
2018-12-15T14:30:30.788Z,5.82
2018-12-15T14:32:57.837Z,5.89
2018-12-15T14:35:24.672Z,5.59
2018-12-15T14:37:52.126Z,5.57
2018-12-15T14:40:20.093Z,5.88
2018-12-15T14:42:47.563Z,5.98
2018-12-15T14:45:14.827Z,6.05
2018-12-15T14:47:41.934Z,5.79
2018-12-15T14:50:08.442Z,6.08
2018-12-15T14:52:37.409Z,5.86
2018-12-15T14:55:09.182Z,5.91
2018-12-15T14:57:36.560Z,6.03
2018-12-15T15:00:04.722Z,5.80
2018-12-15T15:02:36.962Z,5.90
2018-12-15T15:05:03.995Z,6.05
2018-12-15T15:07:31.660Z,6.04
2018-12-15T15:09:59.136Z,5.87
2018-12-15T15:12:28.123Z,5.73
2018-12-15T15:14:56.193Z,5.39
2018-12-15T15:17:23.662Z,5.12
2018-12-15T15:19:51.367Z,5.39
2018-12-15T15:22:19.707Z,5.72
2018-12-15T15:24:47.203Z,5.79
2018-12-15T15:27:15.231Z,5.62
2018-12-15T15:29:43.055Z,5.44
2018-12-15T15:32:10.937Z,5.46
2018-12-15T15:34:39.389Z,5.49
2018-12-15T15:37:07.181Z,5.48
2018-12-15T15:39:35.620Z,5.64
2018-12-15T15:42:04.921Z,5.57
2018-12-15T15:44:31.765Z,5.90
2018-12-15T15:46:58.905Z,5.84
2018-12-15T15:49:27.123Z,6.12
2018-12-15T15:51:55.594Z,6.00
2018-12-15T15:54:23.867Z,5.98
2018-12-15T15:56:52.237Z,5.95
2018-12-15T15:59:20.221Z,5.94
2018-12-15T16:01:51.605Z,6.04
2018-12-15T16:04:19.171Z,5.94
2018-12-15T16:06:46.312Z,5.86
2018-12-15T16:09:14.874Z,5.85
2018-12-15T16:11:45.168Z,5.87
2018-12-15T16:14:14.346Z,5.99
2018-12-15T16:16:41.765Z,5.93
2018-12-15T16:19:08.362Z,5.75
2018-12-15T16:21:37.550Z,5.92
2018-12-15T16:24:06.219Z,5.91
2018-12-15T16:26:34.295Z,5.93
2018-12-15T16:29:02.902Z,5.92
2018-12-15T16:31:31.073Z,5.88
2018-12-15T16:33:58.735Z,5.87
2018-12-15T16:36:26.179Z,6.01
2018-12-15T16:38:53.537Z,5.91
2018-12-15T16:43:54.886Z,5.50
2018-12-15T16:46:22.726Z,5.75
2018-12-15T16:48:50.708Z,5.74
2018-12-15T16:51:18.000Z,5.67
2018-12-15T16:53:44.533Z,5.73
2018-12-15T16:56:12.295Z,5.70
2018-12-15T16:58:39.242Z,5.28
2018-12-15T17:01:06.607Z,5.51
2018-12-15T17:03:35.700Z,5.38
2018-12-15T17:06:03.044Z,5.32
2018-12-15T17:08:34.502Z,5.49
2018-12-15T17:11:02.577Z,5.64
2018-12-15T17:13:30.491Z,5.70
2018-12-15T17:15:59.032Z,5.63
2018-12-15T17:18:26.348Z,5.70
2018-12-15T17:20:56.863Z,5.53
2018-12-15T17:23:25.162Z,5.70
2018-12-15T17:25:52.947Z,5.82
2018-12-15T17:28:19.797Z,5.72
2018-12-15T17:30:46.933Z,5.83
2018-12-15T17:33:14.441Z,5.70
2018-12-15T17:35:41.717Z,5.78
2018-12-15T17:38:09.180Z,5.73
2018-12-15T17:40:36.988Z,5.72
2018-12-15T17:43:05.096Z,5.65
2018-12-15T17:45:32.323Z,5.37
2018-12-15T17:47:59.870Z,5.25
2018-12-15T17:50:28.692Z,5.46
2018-12-15T17:52:55.400Z,5.31
2018-12-15T17:55:22.851Z,5.36
2018-12-15T17:57:51.268Z,5.28
2018-12-15T18:00:18.089Z,5.29
2018-12-15T18:02:45.701Z,5.24
2018-12-15T18:05:14.061Z,5.25
2018-12-15T18:07:42.052Z,5.07
2018-12-15T18:10:08.955Z,4.64
2018-12-15T18:12:36.167Z,4.59
2018-12-15T18:15:04.154Z,4.71
2018-12-15T18:17:31.328Z,4.63
2018-12-15T18:19:57.898Z,4.79
2018-12-15T18:22:25.641Z,4.99
2018-12-15T18:24:53.899Z,5.13
2018-12-15T18:27:21.576Z,5.04
2018-12-15T18:29:49.837Z,4.97
2018-12-15T18:32:17.091Z,5.12
2018-12-15T18:34:44.915Z,5.05
2018-12-15T18:37:12.411Z,5.21
2018-12-15T18:39:39.406Z,4.93
2018-12-15T18:42:10.822Z,5.12
2018-12-15T18:44:37.658Z,5.23
2018-12-15T18:47:06.378Z,5.34
2018-12-15T18:49:33.639Z,5.06
2018-12-15T18:52:01.657Z,4.99
2018-12-15T18:54:28.419Z,5.27
2018-12-15T18:56:56.143Z,5.11
2018-12-15T18:59:24.350Z,4.76
2018-12-15T19:01:52.111Z,5.03
2018-12-15T19:04:19.886Z,5.02
2018-12-15T19:06:46.889Z,5.01
2018-12-15T19:09:14.686Z,4.95
2018-12-15T19:11:44.420Z,4.68
2018-12-15T19:14:13.461Z,4.53
2018-12-15T19:16:40.745Z,4.62
2018-12-15T19:19:10.859Z,4.59
2018-12-15T19:21:39.928Z,4.76
2018-12-15T19:24:08.425Z,4.84
2018-12-15T19:26:36.385Z,4.72
2018-12-15T19:29:03.890Z,4.58
2018-12-15T19:31:30.610Z,4.48
2018-12-15T19:33:58.712Z,4.72
2018-12-15T19:36:26.738Z,4.51
2018-12-15T19:38:54.834Z,4.50
2018-12-15T19:41:22.160Z,4.56
2018-12-15T19:43:49.163Z,4.51
2018-12-15T19:46:16.874Z,4.49
2018-12-15T19:48:45.684Z,4.47
2018-12-15T19:51:12.436Z,4.54
2018-12-15T19:53:40.178Z,4.11
2018-12-15T19:56:06.767Z,3.99
2018-12-15T19:58:34.912Z,4.20
2018-12-15T20:01:01.890Z,4.24
2018-12-15T20:03:28.598Z,4.32
2018-12-15T20:05:58.527Z,4.19
2018-12-15T20:08:26.783Z,4.19
2018-12-15T20:10:55.691Z,4.09
2018-12-15T20:13:23.574Z,4.20
2018-12-15T20:15:50.410Z,4.00
2018-12-15T20:18:17.935Z,3.97
2018-12-15T20:20:45.130Z,4.18
2018-12-15T20:23:11.658Z,3.69
2018-12-15T20:25:39.201Z,4.01
2018-12-15T20:28:07.167Z,3.82
2018-12-15T20:30:35.519Z,4.00
2018-12-15T20:33:04.958Z,3.99
2018-12-15T20:35:33.113Z,3.91
2018-12-15T20:38:00.809Z,4.44
2018-12-15T20:40:28.806Z,4.51
2018-12-15T20:45:28.597Z,4.44
2018-12-15T20:47:57.517Z,4.27
2018-12-15T20:50:24.539Z,3.62
2018-12-15T20:52:52.255Z,3.74
2018-12-15T20:55:19.434Z,4.04
2018-12-15T20:57:46.756Z,4.05
2018-12-15T21:00:13.662Z,4.05
2018-12-15T21:02:41.994Z,4.30
2018-12-15T21:05:09.741Z,3.58
2018-12-15T21:07:36.243Z,3.49
2018-12-15T21:10:03.243Z,3.74
2018-12-15T21:12:30.515Z,3.70
2018-12-15T21:14:57.008Z,3.70
2018-12-15T21:17:25.161Z,3.48
2018-12-15T21:19:53.625Z,3.15
2018-12-15T21:22:21.143Z,3.10
2018-12-15T21:24:49.757Z,2.95
2018-12-15T21:29:50.435Z,3.43
2018-12-15T21:32:17.571Z,3.82
2018-12-15T21:34:45.348Z,3.71
2018-12-15T21:37:12.506Z,3.27
2018-12-15T21:39:40.366Z,3.01
2018-12-15T21:42:09.653Z,2.64
2018-12-15T21:44:37.143Z,2.81
2018-12-15T21:47:04.643Z,3.12
2018-12-15T21:49:32.891Z,3.25
2018-12-15T21:52:00.318Z,3.00
2018-12-15T21:54:27.602Z,2.85
2018-12-15T21:56:54.969Z,3.01
2018-12-15T21:59:22.732Z,2.74
2018-12-15T22:01:50.498Z,2.86
2018-12-15T22:04:18.727Z,3.08
2018-12-15T22:06:46.546Z,2.35
2018-12-15T22:09:14.061Z,2.48
2018-12-15T22:11:42.277Z,2.67
2018-12-15T22:14:09.544Z,2.54
2018-12-15T22:16:36.325Z,2.42
2018-12-15T22:19:03.031Z,2.71
2018-12-15T22:21:31.443Z,3.05
2018-12-15T22:23:59.955Z,2.80
2018-12-15T22:26:27.817Z,2.40
2018-12-15T22:28:55.991Z,2.57
2018-12-15T22:31:24.232Z,2.52
2018-12-15T22:33:52.129Z,1.83
2018-12-15T22:36:20.562Z,1.84
2018-12-15T22:38:48.017Z,2.08
2018-12-15T22:41:14.999Z,2.44
2018-12-15T22:43:41.534Z,2.60
2018-12-15T22:46:09.837Z,2.47
2018-12-15T22:48:38.963Z,2.57
2018-12-15T22:51:06.332Z,2.74
2018-12-15T22:53:33.391Z,2.14
2018-12-15T22:56:00.649Z,2.33
2018-12-15T22:58:28.773Z,2.87
2018-12-15T23:00:55.996Z,2.62
2018-12-15T23:03:23.302Z,2.68
2018-12-15T23:05:50.621Z,2.89
2018-12-15T23:08:18.589Z,2.90
2018-12-15T23:10:45.435Z,2.64
2018-12-15T23:13:13.689Z,2.64
2018-12-15T23:15:42.595Z,2.56
2018-12-15T23:18:10.156Z,2.59
2018-12-15T23:20:38.222Z,2.51
2018-12-15T23:23:06.251Z,2.23
2018-12-15T23:25:34.023Z,2.30
2018-12-15T23:28:02.630Z,2.38
2018-12-15T23:30:31.601Z,2.51
2018-12-15T23:33:03.048Z,2.70
2018-12-15T23:35:31.344Z,2.11
2018-12-15T23:40:32.577Z,1.42
2018-12-15T23:43:00.813Z,1.62
2018-12-15T23:45:30.632Z,1.94
2018-12-15T23:47:59.348Z,1.84
2018-12-15T23:50:27.316Z,1.82
2018-12-15T23:52:54.659Z,1.56
2018-12-15T23:55:22.935Z,1.25
2018-12-15T23:57:52.091Z,1.77
